Time;durP1;ratioP1;P1;durP2;ratioP2;P2;SDS_P1;SDS_P2;PMS_P1;PMS_P2;Temp;Humidity;BMP_temperature;BMP_pressure;BME280_temperature;BME280_humidity;BME280_pressure;Samples;Min_cycle;Max_cycle;Signal;HPM_P1;HPM_P2
2021/01/04 00:01:44;;;;;;;24.40;15.35;;;16.50;71.70;;;;;;5033180;28;20033;-74
2021/01/04 00:04:38;;;;;;;32.20;16.92;;;16.50;71.70;;;;;;5034301;28;20029;-75
2021/01/04 00:07:20;;;;;;;35.25;18.90;;;16.30;70.30;;;;;;5034365;28;20036;-76
2021/01/04 00:09:52;;;;;;;21.67;15.33;;;16.20;70.10;;;;;;5034776;28;20036;-76
2021/01/04 00:12:30;;;;;;;32.10;14.77;;;16.20;70.80;;;;;;5029525;28;20034;-76
2021/01/04 00:15:07;;;;;;;20.13;12.65;;;16.20;71.10;;;;;;5027624;28;20499;-76
2021/01/04 00:17:48;;;;;;;27.73;14.77;;;16.20;71.30;;;;;;5038153;28;20080;-76
2021/01/04 00:20:50;;;;;;;29.95;16.95;;;16.20;70.90;;;;;;5047803;28;20052;-76
2021/01/04 00:23:43;;;;;;;25.42;16.20;;;16.10;71.10;;;;;;5014178;28;20100;-76
2021/01/04 00:26:13;;;;;;;31.50;18.42;;;16.10;70.80;;;;;;5022185;28;20040;-76
2021/01/04 00:28:40;;;;;;;24.75;16.83;;;16.00;70.90;;;;;;5025765;28;20104;-75
2021/01/04 00:31:22;;;;;;;33.30;18.50;;;16.10;71.60;;;;;;5036474;28;20451;-76
2021/01/04 00:34:12;;;;;;;27.80;14.10;;;16.10;71.80;;;;;;5019218;28;20026;-76
2021/01/04 00:37:16;;;;;;;33.85;23.23;;;16.10;71.90;;;;;;5032107;28;20302;-77
2021/01/04 00:39:51;;;;;;;36.63;24.60;;;16.10;71.40;;;;;;5023085;28;20034;-74
2021/01/04 00:42:26;;;;;;;43.30;28.67;;;15.90;71.00;;;;;;5031816;28;20072;-76
2021/01/04 00:44:58;;;;;;;43.05;28.63;;;15.70;70.90;;;;;;5041854;28;20174;-76
2021/01/04 00:47:43;;;;;;;35.30;24.58;;;15.50;71.00;;;;;;5039545;28;20025;-76
2021/01/04 00:50:32;;;;;;;43.22;25.00;;;15.50;71.30;;;;;;5037544;28;20403;-75
2021/01/04 00:53:06;;;;;;;36.58;24.02;;;15.40;71.30;;;;;;5038565;28;20056;-74
2021/01/04 00:55:54;;;;;;;45.30;29.27;;;15.30;71.30;;;;;;5038897;28;20026;-77
2021/01/04 00:59:04;;;;;;;46.60;27.58;;;15.20;71.60;;;;;;5021023;28;20033;-76
2021/01/04 01:01:38;;;;;;;45.45;27.13;;;15.00;71.90;;;;;;5014781;28;20041;-75
2021/01/04 01:04:31;;;;;;;42.97;26.67;;;14.90;72.00;;;;;;5032776;28;20045;-75
2021/01/04 01:07:09;;;;;;;50.80;28.35;;;14.90;72.10;;;;;;5033513;28;20050;-75
2021/01/04 01:09:42;;;;;;;41.42;28.85;;;14.90;72.00;;;;;;5040340;28;20164;-75
2021/01/04 01:12:21;;;;;;;45.58;26.50;;;14.70;72.30;;;;;;5047883;28;20061;-73
2021/01/04 01:15:25;;;;;;;42.17;25.35;;;14.70;72.50;;;;;;5028360;28;20116;-76
2021/01/04 01:18:09;;;;;;;56.58;31.52;;;14.60;72.60;;;;;;5040609;28;20025;-77
2021/01/04 01:20:43;;;;;;;57.28;31.55;;;14.40;72.80;;;;;;5042087;28;20033;-76
2021/01/04 01:23:11;;;;;;;56.90;33.53;;;14.30;73.10;;;;;;5036527;28;20020;-76
2021/01/04 01:25:53;;;;;;;53.38;30.27;;;14.30;73.10;;;;;;5032602;28;20473;-77
2021/01/04 01:28:40;;;;;;;49.97;29.92;;;14.10;73.50;;;;;;5040676;28;20033;-76
2021/01/04 01:31:22;;;;;;;56.78;32.95;;;14.10;73.60;;;;;;5043607;28;20099;-77
2021/01/04 01:34:19;;;;;;;65.07;36.72;;;14.10;73.40;;;;;;5052904;28;20379;-77
2021/01/04 01:36:55;;;;;;;55.80;32.00;;;14.00;73.50;;;;;;5039637;28;20064;-75
2021/01/04 01:39:51;;;;;;;53.33;31.85;;;13.90;74.20;;;;;;5043010;28;20336;-76
2021/01/04 01:42:57;;;;;;;68.82;36.80;;;13.80;74.80;;;;;;5041701;28;20037;-73
2021/01/04 01:45:44;;;;;;;72.22;39.20;;;13.90;74.20;;;;;;5038619;28;20157;-77
2021/01/04 01:48:25;;;;;;;65.43;35.63;;;13.70;74.90;;;;;;5044829;28;20075;-79
2021/01/04 01:51:04;;;;;;;65.88;36.78;;;13.70;74.80;;;;;;5039614;28;20056;-77
2021/01/04 01:53:57;;;;;;;63.00;33.70;;;13.60;75.10;;;;;;5046784;28;20145;-76
2021/01/04 01:56:44;;;;;;;56.05;31.67;;;13.70;75.00;;;;;;5029566;28;20091;-76
2021/01/04 01:59:41;;;;;;;79.40;41.15;;;13.70;74.60;;;;;;5042213;28;20036;-77
2021/01/04 02:02:28;;;;;;;82.50;40.78;;;13.70;75.00;;;;;;5037097;28;20025;-76
2021/01/04 02:05:11;;;;;;;77.78;40.25;;;13.70;75.10;;;;;;5034870;28;20387;-77
2021/01/04 02:07:55;;;;;;;65.05;36.83;;;13.60;75.50;;;;;;5040790;28;20025;-75
2021/01/04 02:10:46;;;;;;;71.75;38.78;;;13.60;75.30;;;;;;5046347;28;20104;-76
2021/01/04 02:13:32;;;;;;;83.68;38.35;;;13.60;75.60;;;;;;5039617;28;20105;-77
2021/01/04 02:16:07;;;;;;;90.35;47.33;;;13.60;75.80;;;;;;5038163;28;20025;-76
2021/01/04 02:19:07;;;;;;;106.38;46.75;;;13.60;75.90;;;;;;5033627;28;20021;-76
2021/01/04 02:22:03;;;;;;;75.13;39.40;;;13.50;75.90;;;;;;5037225;28;20056;-76
2021/01/04 02:24:29;;;;;;;84.22;42.45;;;13.50;76.10;;;;;;5038166;28;20033;-76
2021/01/04 02:27:04;;;;;;;96.75;47.85;;;13.50;76.20;;;;;;5039631;28;20029;-77
2021/01/04 02:29:31;;;;;;;90.10;47.60;;;13.50;76.70;;;;;;5034619;28;20511;-76
2021/01/04 02:32:00;;;;;;;95.47;50.83;;;13.40;76.70;;;;;;5035604;28;20742;-76
2021/01/04 02:34:45;;;;;;;73.00;40.58;;;13.40;76.20;;;;;;5027584;28;20026;-76
2021/01/04 02:37:13;;;;;;;71.68;39.38;;;13.40;77.00;;;;;;5036446;28;20029;-76
2021/01/04 02:39:47;;;;;;;97.28;54.47;;;13.50;75.70;;;;;;5035594;28;20075;-76
2021/01/04 02:42:18;;;;;;;81.20;46.05;;;13.50;75.30;;;;;;5047583;28;20033;-77
2021/01/04 02:44:45;;;;;;;79.30;46.72;;;13.50;75.30;;;;;;5031908;28;20043;-77
2021/01/04 02:47:38;;;;;;;76.78;41.70;;;13.50;75.70;;;;;;5039879;28;20037;-77
2021/01/04 02:50:39;;;;;;;95.75;56.92;;;13.50;75.70;;;;;;5016629;28;20018;-76
2021/01/04 02:53:35;;;;;;;94.45;50.25;;;13.60;74.70;;;;;;5038593;28;20387;-77
2021/01/04 02:56:35;;;;;;;110.20;53.33;;;13.60;74.40;;;;;;5044152;28;20112;-75
2021/01/04 02:59:08;;;;;;;87.00;42.92;;;13.60;74.10;;;;;;5054341;28;20064;-75
2021/01/04 03:01:52;;;;;;;88.18;45.00;;;13.50;75.40;;;;;;5033043;28;20462;-76
2021/01/04 03:04:21;;;;;;;101.38;51.65;;;13.50;75.00;;;;;;5043763;28;20022;-77
2021/01/04 03:06:54;;;;;;;90.60;47.33;;;13.50;74.80;;;;;;5034167;28;20025;-77
2021/01/04 03:09:21;;;;;;;91.70;44.97;;;13.60;74.70;;;;;;5045074;28;20028;-76
2021/01/04 03:11:47;;;;;;;65.38;37.80;;;13.50;74.80;;;;;;5050047;28;20065;-77
2021/01/04 03:14:27;;;;;;;69.78;38.92;;;13.50;75.30;;;;;;5038804;28;20021;-77
2021/01/04 03:17:25;;;;;;;71.45;41.22;;;13.50;75.30;;;;;;5033119;28;20030;-77
2021/01/04 03:19:57;;;;;;;91.40;50.20;;;13.50;74.60;;;;;;5035743;28;20443;-77
2021/01/04 03:22:24;;;;;;;79.63;41.22;;;13.60;74.30;;;;;;5031518;28;20029;-76
2021/01/04 03:24:51;;;;;;;94.10;47.47;;;13.50;74.80;;;;;;5025409;28;20029;-76
2021/01/04 03:27:24;;;;;;;66.60;38.22;;;13.50;74.30;;;;;;5032656;28;20034;-77
2021/01/04 03:29:51;;;;;;;62.47;35.28;;;13.50;74.70;;;;;;5030770;28;20033;-76
2021/01/04 03:32:18;;;;;;;65.10;36.30;;;13.40;75.20;;;;;;5042478;28;20024;-76
2021/01/04 03:34:44;;;;;;;83.03;45.53;;;13.40;75.30;;;;;;5032782;28;20033;-76
2021/01/04 03:37:11;;;;;;;79.25;42.97;;;13.50;74.70;;;;;;5042935;28;20037;-76
2021/01/04 03:39:37;;;;;;;65.20;39.15;;;13.40;74.70;;;;;;5053719;28;20037;-78
2021/01/04 03:42:04;;;;;;;66.18;35.72;;;13.40;74.60;;;;;;5040213;28;20040;-76
2021/01/04 03:44:30;;;;;;;55.78;35.55;;;13.40;75.10;;;;;;5045093;28;20021;-75
2021/01/04 03:46:57;;;;;;;68.95;40.42;;;13.40;75.20;;;;;;5037113;28;20065;-75
2021/01/04 03:49:23;;;;;;;81.88;44.53;;;13.40;74.70;;;;;;5053057;28;20032;-77
2021/01/04 03:52:00;;;;;;;71.95;41.13;;;13.50;74.20;;;;;;5047882;28;20018;-76
2021/01/04 03:54:27;;;;;;;65.60;35.80;;;13.40;74.50;;;;;;5040486;28;20029;-76
2021/01/04 03:56:54;;;;;;;80.10;42.47;;;13.40;74.50;;;;;;5047629;28;20049;-75
2021/01/04 03:59:21;;;;;;;68.32;40.13;;;13.30;74.60;;;;;;5043244;28;20030;-72
2021/01/04 04:01:53;;;;;;;90.72;48.00;;;13.40;74.40;;;;;;5035507;28;20025;-74
2021/01/04 04:04:21;;;;;;;47.22;25.88;;;13.40;74.10;;;;;;5036595;28;20557;-73
2021/01/04 04:06:48;;;;;;;51.42;26.50;;;13.30;74.50;;;;;;5034911;28;20430;-74
2021/01/04 04:09:16;;;;;;;53.55;27.08;;;13.30;74.00;;;;;;5039226;28;20026;-74
2021/01/04 04:11:42;;;;;;;46.97;25.55;;;13.30;74.80;;;;;;5035569;28;20028;-72
2021/01/04 04:14:09;;;;;;;38.40;21.90;;;13.30;75.10;;;;;;5033901;28;20033;-73
2021/01/04 04:16:37;;;;;;;31.13;18.08;;;13.30;75.20;;;;;;5038749;28;20413;-72
2021/01/04 04:19:04;;;;;;;37.97;21.02;;;13.20;75.80;;;;;;5032842;28;20028;-73
2021/01/04 04:21:31;;;;;;;30.60;18.60;;;13.20;75.80;;;;;;5038765;28;20115;-72
2021/01/04 04:23:57;;;;;;;37.22;19.40;;;13.20;76.10;;;;;;5041464;28;20064;-73
2021/01/04 04:26:27;;;;;;;35.35;20.15;;;13.20;75.80;;;;;;5035698;28;20025;-74
2021/01/04 04:28:54;;;;;;;35.97;21.27;;;13.10;75.90;;;;;;5035800;28;20032;-73
2021/01/04 04:31:21;;;;;;;32.13;20.73;;;13.20;75.40;;;;;;5039292;28;20057;-75
2021/01/04 04:33:48;;;;;;;35.30;21.75;;;13.20;75.40;;;;;;5034735;28;20375;-74
2021/01/04 04:36:27;;;;;;;38.30;22.25;;;13.20;75.90;;;;;;5035325;28;20021;-73
2021/01/04 04:38:54;;;;;;;42.33;21.17;;;13.10;76.00;;;;;;5033740;28;20052;-73
2021/01/04 04:41:49;;;;;;;34.00;22.35;;;13.10;75.70;;;;;;5035673;28;20028;-73
2021/01/04 04:44:30;;;;;;;47.40;30.95;;;13.10;76.30;;;;;;5032086;28;20045;-73
2021/01/04 04:47:10;;;;;;;42.35;26.65;;;12.90;77.50;;;;;;5039347;28;20355;-75
2021/01/04 04:50:01;;;;;;;42.30;20.08;;;13.00;76.40;;;;;;5028043;28;20409;-74
2021/01/04 04:53:03;;;;;;;32.92;13.82;;;13.10;75.70;;;;;;5043931;28;20029;-75
2021/01/04 04:56:03;;;;;;;24.40;10.30;;;13.30;75.40;;;;;;5022673;28;20045;-76
2021/01/04 04:59:04;;;;;;;33.22;10.70;;;13.40;75.00;;;;;;5027146;28;20021;-73
2021/01/04 05:01:45;;;;;;;25.50;11.10;;;13.50;75.30;;;;;;5032632;28;20033;-75
2021/01/04 05:04:34;;;;;;;31.30;11.10;;;13.70;75.50;;;;;;5031321;28;20029;-74
2021/01/04 05:07:07;;;;;;;30.02;10.57;;;13.70;75.10;;;;;;5033468;28;20029;-74
2021/01/04 05:09:53;;;;;;;24.00;9.90;;;13.80;74.70;;;;;;5032151;28;20022;-74
2021/01/04 05:12:30;;;;;;;22.60;9.95;;;14.10;74.00;;;;;;5052233;28;20025;-75
2021/01/04 05:15:27;;;;;;;30.08;9.77;;;14.10;73.80;;;;;;5035740;28;20027;-74
2021/01/04 05:17:57;;;;;;;27.80;8.20;;;14.20;73.40;;;;;;5033453;28;20029;-73
2021/01/04 05:20:26;;;;;;;20.23;7.78;;;14.20;73.80;;;;;;5035333;28;20030;-74
2021/01/04 05:23:06;;;;;;;21.48;8.38;;;14.10;74.20;;;;;;5022211;28;20116;-75
2021/01/04 05:26:00;;;;;;;21.48;8.48;;;14.20;74.10;;;;;;5036418;28;20542;-74
2021/01/04 05:28:45;;;;;;;26.83;14.20;;;14.10;74.50;;;;;;5032012;28;20026;-74
2021/01/04 05:31:37;;;;;;;34.47;22.80;;;14.00;75.00;;;;;;5053614;28;20094;-75
2021/01/04 05:34:31;;;;;;;23.63;12.10;;;14.20;74.60;;;;;;5032111;28;20026;-75
2021/01/04 05:37:12;;;;;;;21.38;10.70;;;14.20;74.00;;;;;;5031894;28;20275;-75
2021/01/04 05:40:03;;;;;;;17.33;7.38;;;14.30;73.90;;;;;;5031875;28;20182;-73
2021/01/04 05:42:44;;;;;;;17.85;7.00;;;14.10;74.30;;;;;;5036582;28;20116;-74
2021/01/04 05:45:47;;;;;;;25.52;11.30;;;14.10;74.70;;;;;;5033165;28;20036;-74
2021/01/04 05:48:42;;;;;;;19.92;11.57;;;14.00;74.90;;;;;;5033757;28;20026;-73
2021/01/04 05:51:40;;;;;;;23.45;13.30;;;14.00;74.90;;;;;;5032342;28;20474;-74
2021/01/04 05:54:07;;;;;;;24.13;9.80;;;14.00;75.00;;;;;;5025321;28;20034;-74
2021/01/04 05:56:34;;;;;;;20.50;9.55;;;13.90;75.00;;;;;;5019008;28;20026;-76
2021/01/04 05:59:15;;;;;;;19.58;8.45;;;13.90;75.00;;;;;;5030147;28;20355;-75
2021/01/04 06:01:44;;;;;;;17.52;8.05;;;13.90;75.10;;;;;;5031879;28;20029;-74
2021/01/04 06:04:29;;;;;;;25.55;9.07;;;14.00;74.40;;;;;;5030925;28;20028;-74
2021/01/04 06:07:00;;;;;;;27.92;9.55;;;14.10;74.20;;;;;;5032723;28;20017;-74
2021/01/04 06:09:28;;;;;;;24.33;8.35;;;14.10;74.00;;;;;;5026679;28;20030;-74
2021/01/04 06:12:01;;;;;;;24.42;9.75;;;14.10;74.00;;;;;;5029827;28;20051;-74
2021/01/04 06:14:30;;;;;;;27.77;8.40;;;14.10;74.10;;;;;;5035512;28;20033;-73
2021/01/04 06:17:27;;;;;;;27.20;10.27;;;14.10;73.90;;;;;;5028979;28;20029;-76
2021/01/04 06:19:54;;;;;;;19.27;7.75;;;14.10;73.80;;;;;;5032599;28;20037;-74
2021/01/04 06:22:31;;;;;;;20.48;7.22;;;14.10;74.40;;;;;;5050260;28;20033;-74
2021/01/04 06:25:07;;;;;;;20.38;6.65;;;13.90;74.90;;;;;;5040320;28;20022;-74
2021/01/04 06:27:37;;;;;;;36.83;19.00;;;13.90;75.20;;;;;;5031233;28;20071;-75
2021/01/04 06:30:31;;;;;;;40.15;20.70;;;13.80;75.40;;;;;;5029720;28;20041;-75
2021/01/04 06:33:28;;;;;;;38.47;20.73;;;13.90;75.30;;;;;;5028830;28;20348;-75
2021/01/04 06:36:07;;;;;;;42.40;23.13;;;13.90;75.50;;;;;;5026805;28;20057;-74
2021/01/04 06:38:41;;;;;;;42.28;24.98;;;13.80;75.40;;;;;;5027472;28;20053;-75
2021/01/04 06:41:33;;;;;;;43.70;24.13;;;13.80;75.40;;;;;;5034369;28;20032;-75
2021/01/04 06:44:17;;;;;;;41.58;26.70;;;13.80;75.40;;;;;;5030347;28;20030;-75
2021/01/04 06:46:57;;;;;;;44.03;26.02;;;13.80;75.40;;;;;;5035953;28;20466;-74
2021/01/04 06:49:38;;;;;;;56.78;31.08;;;13.90;75.40;;;;;;5031991;28;20024;-75
2021/01/04 06:52:43;;;;;;;54.80;28.48;;;13.90;75.20;;;;;;5025179;28;20033;-74
2021/01/04 06:55:37;;;;;;;70.38;37.80;;;13.90;74.80;;;;;;5033569;28;20083;-76
2021/01/04 06:58:40;;;;;;;50.15;30.17;;;14.00;74.20;;;;;;5033421;28;20028;-75
2021/01/04 07:01:23;;;;;;;65.65;33.67;;;13.80;75.10;;;;;;5031095;28;20382;-75
2021/01/04 07:04:08;;;;;;;52.47;29.17;;;13.80;75.40;;;;;;5029612;28;20036;-76
2021/01/04 07:07:08;;;;;;;53.92;27.92;;;13.80;75.40;;;;;;5041535;28;20022;-75
2021/01/04 07:53:59;;;;;;;81.53;37.00;;;13.60;76.00;;;;;;4957185;28;20059;-75
2021/01/04 07:56:37;;;;;;;74.53;38.30;;;13.60;76.30;;;;;;5017340;28;20093;-74
2021/01/04 07:59:34;;;;;;;77.00;38.80;;;13.60;76.30;;;;;;5044358;28;20156;-75
2021/01/04 08:02:39;;;;;;;72.63;32.85;;;13.50;76.20;;;;;;5034412;28;20030;-75
2021/01/04 08:05:37;;;;;;;74.80;36.58;;;13.60;76.40;;;;;;4968738;28;20031;-75
2021/01/04 08:08:30;;;;;;;65.07;34.28;;;13.50;76.50;;;;;;4968434;28;20118;-76
2021/01/04 08:11:39;;;;;;;67.38;36.13;;;13.60;76.50;;;;;;5022383;28;20127;-76
2021/01/04 08:14:39;;;;;;;73.35;37.17;;;13.60;75.90;;;;;;5034405;28;20471;-74
2021/01/04 08:17:09;;;;;;;63.85;33.55;;;13.60;76.40;;;;;;5035202;28;20041;-75
2021/01/04 08:19:39;;;;;;;72.10;34.47;;;13.60;76.10;;;;;;5035691;28;20033;-74
2021/01/04 08:22:11;;;;;;;70.03;35.75;;;13.60;76.00;;;;;;5039670;28;20494;-75
2021/01/04 08:24:45;;;;;;;73.00;36.20;;;13.60;75.70;;;;;;5034268;28;20029;-75
2021/01/04 08:27:39;;;;;;;71.57;37.75;;;13.60;75.80;;;;;;5034783;28;20481;-75
2021/01/04 08:30:19;;;;;;;63.40;34.85;;;13.60;75.80;;;;;;5033870;28;20466;-75
2021/01/04 08:33:12;;;;;;;83.80;38.78;;;13.50;75.90;;;;;;5034291;28;20035;-75
2021/01/04 08:35:45;;;;;;;75.70;39.15;;;13.60;75.00;;;;;;5028871;28;20124;-75
2021/01/04 08:38:26;;;;;;;85.28;39.40;;;13.70;74.70;;;;;;5034533;28;20032;-75
2021/01/04 08:41:21;;;;;;;81.15;40.35;;;13.60;74.40;;;;;;5032333;28;20084;-75
2021/01/04 08:43:54;;;;;;;68.70;36.83;;;13.60;74.70;;;;;;5015059;28;20048;-74
2021/01/04 08:46:23;;;;;;;73.65;34.13;;;13.50;74.40;;;;;;5023843;28;20033;-74
2021/01/04 08:48:59;;;;;;;61.25;31.23;;;13.40;75.20;;;;;;5026709;28;20328;-74
2021/01/04 08:51:25;;;;;;;48.75;26.33;;;13.40;75.80;;;;;;5037345;28;20030;-74
2021/01/04 08:53:55;;;;;;;58.60;30.30;;;13.30;75.90;;;;;;5035856;28;20021;-74
2021/01/04 08:56:22;;;;;;;52.22;25.98;;;13.40;74.90;;;;;;5041969;28;20041;-75
2021/01/04 08:58:49;;;;;;;54.63;28.17;;;13.40;75.00;;;;;;5033803;28;20064;-75
2021/01/04 09:01:24;;;;;;;57.88;25.10;;;13.40;75.30;;;;;;5018101;28;20053;-75
2021/01/04 09:04:11;;;;;;;38.97;23.73;;;13.20;76.40;;;;;;5030266;28;20049;-75
2021/01/04 09:06:53;;;;;;;43.70;24.35;;;13.20;76.30;;;;;;5027673;28;20036;-75
2021/01/04 09:09:30;;;;;;;34.90;21.10;;;13.20;76.10;;;;;;5035812;28;20022;-75
2021/01/04 09:12:05;;;;;;;52.80;28.15;;;13.20;76.20;;;;;;5025874;28;20106;-76
2021/01/04 09:14:58;;;;;;;52.28;27.70;;;13.30;75.40;;;;;;5025465;28;20538;-76
2021/01/04 09:17:40;;;;;;;39.33;22.63;;;13.40;75.20;;;;;;5037113;28;20029;-75
2021/01/04 09:20:16;;;;;;;40.75;20.92;;;13.40;76.00;;;;;;5035155;28;20026;-75
2021/01/04 09:22:43;;;;;;;36.60;22.17;;;13.30;76.70;;;;;;5029409;28;20034;-75
2021/01/04 09:25:45;;;;;;;40.13;23.63;;;13.30;76.40;;;;;;5019989;28;20026;-75
2021/01/04 09:28:13;;;;;;;29.63;18.53;;;13.30;76.10;;;;;;5030048;28;20117;-74
2021/01/04 09:30:40;;;;;;;41.55;18.95;;;13.30;76.20;;;;;;5033561;28;20021;-74
2021/01/04 09:33:17;;;;;;;37.80;19.80;;;13.40;76.20;;;;;;5027934;28;20360;-74
2021/01/04 09:35:44;;;;;;;40.42;21.38;;;13.40;76.20;;;;;;5017168;28;20029;-74
2021/01/04 09:38:23;;;;;;;33.50;20.58;;;13.40;76.00;;;;;;5027082;28;20029;-74
2021/01/04 09:40:58;;;;;;;31.08;15.65;;;13.30;76.00;;;;;;5023891;28;20037;-74
2021/01/04 09:43:30;;;;;;;28.33;16.00;;;13.40;75.90;;;;;;5027977;28;20018;-75
2021/01/04 09:46:29;;;;;;;53.33;20.60;;;13.30;76.20;;;;;;5033333;28;20023;-75
2021/01/04 09:49:07;;;;;;;40.10;21.48;;;13.40;75.80;;;;;;5034687;28;20450;-74
2021/01/04 09:51:44;;;;;;;35.05;16.98;;;13.40;75.20;;;;;;5043649;28;20503;-74
2021/01/04 09:54:17;;;;;;;27.90;16.50;;;13.40;75.70;;;;;;5033462;28;22149;-74
2021/01/04 09:56:43;;;;;;;38.72;19.83;;;13.30;76.20;;;;;;5035405;28;20049;-74
2021/01/04 09:59:22;;;;;;;25.20;15.88;;;13.40;75.70;;;;;;5028652;28;20392;-74
2021/01/04 10:01:53;;;;;;;33.80;19.05;;;13.40;75.60;;;;;;5023914;28;20171;-75
2021/01/04 10:04:26;;;;;;;37.72;18.88;;;13.30;76.40;;;;;;5030169;28;20022;-76
2021/01/04 10:06:53;;;;;;;25.42;15.00;;;13.30;76.10;;;;;;5032025;28;20026;-74
2021/01/04 10:09:20;;;;;;;26.38;15.73;;;13.30;76.10;;;;;;5036132;28;20033;-75
2021/01/04 10:11:49;;;;;;;30.30;15.52;;;13.30;76.50;;;;;;5034196;28;20072;-75
2021/01/04 10:14:18;;;;;;;31.60;15.50;;;13.30;76.60;;;;;;5024200;28;20380;-74
2021/01/04 10:16:48;;;;;;;25.42;16.38;;;13.30;76.50;;;;;;5036914;28;20025;-74
2021/01/04 10:19:45;;;;;;;38.53;19.95;;;13.30;76.40;;;;;;5023642;28;20092;-74
2021/01/04 10:22:28;;;;;;;28.98;18.20;;;13.40;75.60;;;;;;5027261;28;20029;-74
2021/01/04 10:25:18;;;;;;;28.73;16.55;;;13.30;76.10;;;;;;5033436;28;20045;-75
2021/01/04 10:27:50;;;;;;;37.00;18.73;;;13.30;76.30;;;;;;5029592;28;20018;-75
2021/01/04 10:30:20;;;;;;;35.43;18.47;;;13.20;76.70;;;;;;5017294;28;20037;-74
2021/01/04 10:32:46;;;;;;;25.58;16.55;;;13.20;76.70;;;;;;5029479;28;20293;-75
2021/01/04 10:35:21;;;;;;;36.03;21.98;;;13.20;76.70;;;;;;5027911;28;20029;-75
2021/01/04 10:37:51;;;;;;;37.35;17.92;;;13.20;76.10;;;;;;5033728;28;20057;-74
2021/01/04 10:40:23;;;;;;;38.97;18.77;;;13.20;76.60;;;;;;5031844;28;20040;-74
2021/01/04 10:43:01;;;;;;;63.20;27.37;;;13.20;76.60;;;;;;5032562;28;20032;-75
2021/01/04 10:45:39;;;;;;;42.28;22.52;;;13.40;75.00;;;;;;5027724;28;20025;-74
2021/01/04 10:48:19;;;;;;;50.10;24.92;;;13.30;75.90;;;;;;5030313;28;20029;-74
2021/01/04 10:50:48;;;;;;;38.03;21.83;;;13.30;76.20;;;;;;5018723;28;20060;-74
2021/01/04 10:53:36;;;;;;;44.97;23.00;;;13.20;76.60;;;;;;5030187;28;20029;-74
2021/01/04 10:56:18;;;;;;;55.28;28.13;;;13.20;76.60;;;;;;5031408;28;20116;-74
2021/01/04 10:58:47;;;;;;;54.35;27.42;;;13.30;76.30;;;;;;5028330;28;20387;-74
2021/01/04 11:01:21;;;;;;;36.15;20.90;;;13.30;76.00;;;;;;5021382;28;20022;-74
2021/01/04 11:03:58;;;;;;;42.90;22.20;;;13.20;76.20;;;;;;5026174;28;20049;-74
2021/01/04 11:06:30;;;;;;;45.17;22.58;;;13.20;76.50;;;;;;5028046;28;20025;-74
2021/01/04 11:08:57;;;;;;;62.92;28.40;;;13.20;76.60;;;;;;5026469;28;20028;-74
2021/01/04 11:11:31;;;;;;;53.13;28.23;;;13.30;75.80;;;;;;5033376;28;20026;-74
2021/01/04 11:14:15;;;;;;;57.33;30.50;;;13.30;76.10;;;;;;5016240;28;20479;-74
2021/01/04 11:16:53;;;;;;;60.25;30.88;;;13.20;75.60;;;;;;5029157;28;20030;-74
2021/01/04 11:19:31;;;;;;;66.13;31.27;;;13.20;76.00;;;;;;5033239;28;20033;-75
2021/01/04 11:22:14;;;;;;;42.67;23.73;;;13.20;75.70;;;;;;5032694;28;20041;-75
2021/01/04 11:24:41;;;;;;;51.08;27.05;;;13.10;76.40;;;;;;5032631;28;20155;-74
2021/01/04 11:27:08;;;;;;;47.60;24.00;;;13.20;75.70;;;;;;5033937;28;20403;-74
2021/01/04 11:29:37;;;;;;;44.97;20.58;;;13.20;76.10;;;;;;5029131;28;20399;-74
2021/01/04 11:32:04;;;;;;;45.15;20.38;;;13.10;76.40;;;;;;5032577;28;20025;-74
2021/01/04 11:34:30;;;;;;;33.05;19.63;;;13.10;77.00;;;;;;5017908;28;20033;-74
2021/01/04 11:36:57;;;;;;;28.35;15.95;;;13.10;76.50;;;;;;5025126;28;20026;-75
2021/01/04 11:39:23;;;;;;;34.63;17.55;;;13.00;77.40;;;;;;5025624;28;20026;-74
2021/01/04 11:41:50;;;;;;;31.20;16.75;;;13.10;77.20;;;;;;5026128;28;20029;-74
2021/01/04 11:44:17;;;;;;;30.73;16.15;;;13.10;77.10;;;;;;5028472;28;20018;-75
2021/01/04 11:46:43;;;;;;;41.95;20.13;;;13.10;77.00;;;;;;5032960;28;20021;-74
2021/01/04 11:49:10;;;;;;;38.85;17.52;;;13.10;77.10;;;;;;5022988;28;20065;-74
2021/01/04 11:51:36;;;;;;;39.13;16.85;;;13.20;76.40;;;;;;5022578;28;20072;-74
2021/01/04 11:54:06;;;;;;;25.60;16.40;;;13.20;76.80;;;;;;5025532;28;20454;-74
2021/01/04 11:56:33;;;;;;;30.45;15.55;;;13.10;77.00;;;;;;5036229;28;20044;-74
2021/01/04 11:58:59;;;;;;;30.38;15.65;;;13.20;76.80;;;;;;5031236;28;20024;-74
2021/01/04 12:01:26;;;;;;;27.25;15.10;;;13.20;77.10;;;;;;5033984;28;20058;-74
2021/01/04 12:03:54;;;;;;;31.95;15.77;;;13.30;77.20;;;;;;5024031;28;20026;-74
2021/01/04 12:06:21;;;;;;;19.15;14.27;;;13.30;76.90;;;;;;5034727;28;20030;-74
2021/01/04 12:08:48;;;;;;;21.95;15.07;;;13.30;77.00;;;;;;5036114;28;20479;-75
2021/01/04 12:11:15;;;;;;;27.63;16.05;;;13.30;76.90;;;;;;5023997;28;20078;-75
2021/01/04 12:13:41;;;;;;;26.85;17.40;;;13.30;76.90;;;;;;5025849;28;20033;-74
2021/01/04 12:16:07;;;;;;;32.17;19.10;;;13.30;76.90;;;;;;5026258;28;20021;-74
2021/01/04 12:18:34;;;;;;;33.70;20.27;;;13.30;76.90;;;;;;5036287;28;20045;-74
2021/01/04 12:21:00;;;;;;;31.35;19.77;;;13.40;76.70;;;;;;5025681;28;20037;-74
2021/01/04 12:23:27;;;;;;;34.40;20.50;;;13.40;76.80;;;;;;5035942;28;20363;-74
2021/01/04 12:25:53;;;;;;;35.58;20.05;;;13.40;76.80;;;;;;5016973;28;20033;-77
2021/01/04 12:28:19;;;;;;;30.27;16.83;;;13.40;76.80;;;;;;5037068;28;20028;-74
2021/01/04 12:30:46;;;;;;;41.63;23.45;;;13.40;76.70;;;;;;5040569;28;20101;-74
2021/01/04 12:33:12;;;;;;;53.92;23.63;;;13.50;76.50;;;;;;5032943;28;20029;-76
2021/01/04 12:35:39;;;;;;;28.75;16.70;;;13.50;76.40;;;;;;5024558;28;20029;-74
2021/01/04 12:38:05;;;;;;;26.38;16.23;;;13.50;76.20;;;;;;5035448;28;20463;-74
2021/01/04 12:40:34;;;;;;;32.15;17.25;;;13.50;76.30;;;;;;5026755;28;20038;-74
2021/01/04 12:43:01;;;;;;;37.92;20.15;;;13.40;76.50;;;;;;5025592;28;20026;-74
2021/01/04 12:45:32;;;;;;;37.03;20.98;;;13.40;76.60;;;;;;5034465;28;20407;-74
2021/01/04 12:47:58;;;;;;;47.63;24.58;;;13.40;76.50;;;;;;5025796;28;20333;-74
2021/01/04 12:50:25;;;;;;;45.47;23.58;;;13.50;76.70;;;;;;5029632;28;20431;-74
2021/01/04 12:52:51;;;;;;;42.92;21.17;;;13.50;76.70;;;;;;5030953;28;20072;-74
2021/01/04 12:55:19;;;;;;;43.53;23.52;;;13.50;76.80;;;;;;5033651;28;20107;-75
2021/01/04 12:57:48;;;;;;;34.40;19.80;;;13.50;77.00;;;;;;5035194;28;20053;-76
2021/01/04 13:00:23;;;;;;;45.88;22.65;;;13.60;76.80;;;;;;5034507;28;20049;-74
2021/01/04 13:02:53;;;;;;;37.53;20.42;;;13.60;76.80;;;;;;5034070;28;20034;-74
2021/01/04 13:05:20;;;;;;;38.38;19.30;;;13.60;76.80;;;;;;5021882;28;20036;-73
2021/01/04 13:07:47;;;;;;;31.88;19.13;;;13.60;76.60;;;;;;5031033;28;20025;-75
2021/01/04 13:10:15;;;;;;;31.63;18.70;;;13.70;76.30;;;;;;5034757;28;20029;-74
2021/01/04 13:12:42;;;;;;;33.15;18.95;;;13.70;76.60;;;;;;5034630;28;20026;-74
2021/01/04 13:15:10;;;;;;;45.10;21.30;;;13.70;76.30;;;;;;5024821;28;20033;-74
2021/01/04 13:17:36;;;;;;;45.67;22.20;;;13.80;75.80;;;;;;5031250;28;20105;-74
2021/01/04 13:20:04;;;;;;;33.35;20.52;;;13.80;75.20;;;;;;5029545;28;20333;-74
2021/01/04 13:22:30;;;;;;;30.27;15.05;;;13.90;75.30;;;;;;5025257;28;20382;-74
2021/01/04 13:24:57;;;;;;;24.30;15.20;;;13.80;75.90;;;;;;5033361;28;20068;-74
2021/01/04 13:27:24;;;;;;;24.65;16.05;;;13.80;76.40;;;;;;5029275;28;20029;-74
2021/01/04 13:29:52;;;;;;;22.60;14.35;;;13.80;76.60;;;;;;5034574;28;20052;-74
2021/01/04 13:32:19;;;;;;;23.67;12.68;;;13.80;76.30;;;;;;5034705;28;20382;-75
2021/01/04 13:34:47;;;;;;;20.70;9.25;;;13.80;76.00;;;;;;5035030;28;20359;-75
2021/01/04 13:37:14;;;;;;;13.32;4.78;;;13.90;75.70;;;;;;5034942;28;20033;-74
2021/01/04 13:39:41;;;;;;;11.35;4.45;;;14.10;75.60;;;;;;5035387;28;20064;-75
2021/01/04 13:42:09;;;;;;;6.35;4.35;;;14.20;75.10;;;;;;5035181;28;20025;-74
2021/01/04 13:44:38;;;;;;;8.50;2.50;;;14.40;75.00;;;;;;5034780;28;20076;-74
2021/01/04 13:47:07;;;;;;;6.85;2.53;;;14.40;75.60;;;;;;5035538;28;20032;-75
2021/01/04 13:49:34;;;;;;;3.92;2.13;;;14.50;75.90;;;;;;5034915;28;20171;-75
2021/01/04 13:52:01;;;;;;;8.02;2.78;;;14.60;76.40;;;;;;5035105;28;20167;-74
2021/01/04 13:54:27;;;;;;;6.10;2.15;;;14.60;76.20;;;;;;5034590;28;20112;-75
2021/01/04 13:56:55;;;;;;;8.50;2.97;;;14.80;76.30;;;;;;5032961;28;20529;-74
2021/01/04 13:59:24;;;;;;;4.13;1.65;;;15.00;75.70;;;;;;5034271;28;20036;-74
2021/01/04 14:02:00;;;;;;;3.25;1.48;;;15.20;75.00;;;;;;5033282;28;20026;-74